Time,TemperatureF,DewpointF,PressureIn,WindDirection,WindDirectionDegrees,WindSpeedMPH,WindSpeedGustMPH,Humidity,HourlyPrecipIn,Conditions,Clouds,dailyrainin,SoftwareType,DateUTC
2013-02-11 00:00:00,25.0,22.2,30.15,NNW,337,0.0,8.0,89,0.00,,---,0.00,VWS V14.01,2013-02-11 07:00:00,
2013-02-11 00:10:00,25.0,22.2,30.15,NNW,337,5.0,6.0,89,0.00,,---,0.00,VWS V14.01,2013-02-11 07:10:00,
2013-02-11 00:20:00,25.0,22.5,30.15,North,360,0.0,5.0,90,0.00,,---,0.00,VWS V14.01,2013-02-11 07:20:00,
2013-02-11 00:30:00,25.0,22.5,30.16,NNW,337,0.0,0.0,90,0.00,,---,0.00,VWS V14.01,2013-02-11 07:30:00,
2013-02-11 00:40:00,25.0,22.8,30.15,North,360,0.0,0.0,91,0.00,,---,0.00,VWS V14.01,2013-02-11 07:40:00,
2013-02-11 00:50:00,25.0,22.8,30.16,NNW,337,0.0,0.0,91,0.00,,---,0.00,VWS V14.01,2013-02-11 07:50:00,
2013-02-11 01:00:00,25.0,22.8,30.15,North,360,0.0,0.0,91,0.00,,---,0.00,VWS V14.01,2013-02-11 08:00:00,
2013-02-11 01:10:00,25.0,22.8,30.15,North,360,0.0,0.0,91,0.00,,---,0.00,VWS V14.01,2013-02-11 08:10:00,
2013-02-11 01:20:00,25.0,22.8,30.15,NNE,22,0.0,0.0,91,0.00,,---,0.00,VWS V14.01,2013-02-11 08:20:00,
2013-02-11 01:30:00,25.0,22.8,30.16,NNE,22,0.0,0.0,91,0.00,,---,0.00,VWS V14.01,2013-02-11 08:30:00,
2013-02-11 01:40:00,24.0,21.8,30.16,NNE,22,0.0,0.0,91,0.00,,---,0.00,VWS V14.01,2013-02-11 08:40:00,
2013-02-11 01:50:00,23.0,21.0,30.16,NNE,22,0.0,0.0,92,0.00,,---,0.00,VWS V14.01,2013-02-11 08:50:00,
2013-02-11 02:00:00,23.0,21.0,30.16,NNE,22,0.0,0.0,92,0.00,,---,0.00,VWS V14.01,2013-02-11 09:00:00,
2013-02-11 02:10:00,23.0,21.0,30.16,NNE,22,0.0,0.0,92,0.00,,---,0.00,VWS V14.01,2013-02-11 09:10:00,
2013-02-11 02:20:00,22.0,20.0,30.16,NNE,22,0.0,0.0,92,0.00,,---,0.00,VWS V14.01,2013-02-11 09:20:00,
2013-02-11 02:30:00,22.0,20.0,30.17,West,270,0.0,0.0,92,0.00,,---,0.00,VWS V14.01,2013-02-11 09:30:00,
2013-02-11 02:40:00,21.0,19.3,30.17,West,270,0.0,0.0,93,0.00,,---,0.00,VWS V14.01,2013-02-11 09:40:00,
2013-02-11 02:50:00,21.0,19.5,30.17,West,270,0.0,0.0,94,0.00,,---,0.00,VWS V14.01,2013-02-11 09:50:00,
2013-02-11 03:00:00,20.0,18.8,30.17,WNW,292,0.0,0.0,95,0.00,,---,0.00,VWS V14.01,2013-02-11 10:00:00,
2013-02-11 03:10:00,21.0,19.8,30.17,WNW,292,0.0,0.0,95,0.00,,---,0.00,VWS V14.01,2013-02-11 10:10:00,
2013-02-11 03:20:00,21.0,19.8,30.17,WNW,292,0.0,0.0,95,0.00,,---,0.00,VWS V14.01,2013-02-11 10:20:00,
2013-02-11 03:30:00,21.0,19.8,30.16,WNW,292,0.0,0.0,95,0.00,,---,0.00,VWS V14.01,2013-02-11 10:30:00,
2013-02-11 03:40:00,20.0,18.8,30.16,West,270,0.0,0.0,95,0.00,,---,0.00,VWS V14.01,2013-02-11 10:40:00,
2013-02-11 03:50:00,20.0,18.8,30.16,West,270,0.0,0.0,95,0.00,,---,0.00,VWS V14.01,2013-02-11 10:50:00,
2013-02-11 04:00:00,20.0,18.8,30.16,West,270,0.0,0.0,95,0.00,,---,0.00,VWS V14.01,2013-02-11 11:00:00,
2013-02-11 04:10:00,20.0,18.8,30.16,WNW,292,0.0,0.0,95,0.00,,---,0.00,VWS V14.01,2013-02-11 11:10:00,
2013-02-11 04:20:00,21.0,19.5,30.16,WNW,292,0.0,0.0,94,0.00,,---,0.00,VWS V14.01,2013-02-11 11:20:00,
2013-02-11 04:30:00,21.0,19.5,30.16,WNW,292,0.0,0.0,94,0.00,,---,0.00,VWS V14.01,2013-02-11 11:30:00,
2013-02-11 04:40:00,21.0,19.5,30.16,WNW,292,0.0,0.0,94,0.00,,---,0.00,VWS V14.01,2013-02-11 11:40:00,
2013-02-11 04:50:00,21.0,19.3,30.16,WNW,292,0.0,0.0,93,0.00,,---,0.00,VWS V14.01,2013-02-11 11:50:00,
2013-02-11 05:00:00,21.0,19.3,30.16,WNW,292,0.0,0.0,93,0.00,,---,0.00,VWS V14.01,2013-02-11 12:00:00,
2013-02-11 05:10:00,20.0,18.3,30.16,WNW,292,0.0,0.0,93,0.00,,---,0.00,VWS V14.01,2013-02-11 12:10:00,
2013-02-11 05:20:00,20.0,18.3,30.16,West,270,0.0,0.0,93,0.00,,---,0.00,VWS V14.01,2013-02-11 12:20:00,
2013-02-11 05:30:00,20.0,18.5,30.16,West,270,0.0,0.0,94,0.00,,---,0.00,VWS V14.01,2013-02-11 12:30:00,
2013-02-11 05:40:00,20.0,18.5,30.16,West,270,0.0,0.0,94,0.00,,---,0.00,VWS V14.01,2013-02-11 12:40:00,
2013-02-11 05:50:00,20.0,18.5,30.16,West,270,0.0,0.0,94,0.00,,---,0.00,VWS V14.01,2013-02-11 12:50:00,
2013-02-11 06:00:00,19.0,17.8,30.17,ENE,67,0.0,0.0,95,0.00,,---,0.00,VWS V14.01,2013-02-11 13:00:00,
2013-02-11 06:10:00,18.0,16.8,30.18,ENE,67,0.0,0.0,95,0.00,,---,0.00,VWS V14.01,2013-02-11 13:10:00,
2013-02-11 06:20:00,19.0,17.8,30.18,ENE,67,0.0,0.0,95,0.00,,---,0.00,VWS V14.01,2013-02-11 13:20:00,
2013-02-11 06:30:00,19.0,18.0,30.18,NE,45,0.0,0.0,96,0.00,,---,0.00,VWS V14.01,2013-02-11 13:30:00,
2013-02-11 06:40:00,21.0,19.8,30.18,NE,45,0.0,0.0,95,0.00,,---,0.00,VWS V14.01,2013-02-11 13:40:00,
2013-02-11 06:50:00,21.0,20.0,30.18,ENE,67,0.0,0.0,96,0.00,,---,0.00,VWS V14.01,2013-02-11 13:50:00,
2013-02-11 07:00:00,20.0,19.0,30.18,ENE,67,0.0,0.0,96,0.00,,---,0.00,VWS V14.01,2013-02-11 14:00:00,
2013-02-11 07:20:00,21.0,20.0,30.19,ENE,67,0.0,0.0,96,0.00,,---,0.00,VWS V14.01,2013-02-11 14:20:00,
2013-02-11 07:30:00,23.0,21.8,30.18,NE,45,0.0,0.0,95,0.00,,---,0.00,VWS V14.01,2013-02-11 14:30:00,
2013-02-11 07:40:00,23.0,21.8,30.18,NE,45,0.0,0.0,95,0.00,,---,0.00,VWS V14.01,2013-02-11 14:40:00,
2013-02-11 07:50:00,25.0,23.5,30.18,North,360,0.0,0.0,94,0.00,,---,0.00,VWS V14.01,2013-02-11 14:50:00,
2013-02-11 08:00:00,27.0,25.2,30.17,NNE,22,0.0,0.0,93,0.00,,---,0.00,VWS V14.01,2013-02-11 15:00:00,
2013-02-11 08:10:00,29.0,27.0,30.16,ENE,67,0.0,0.0,92,0.00,,---,0.00,VWS V14.01,2013-02-11 15:10:00,
2013-02-11 08:20:00,29.0,25.9,30.16,NE,45,0.0,0.0,88,0.00,,---,0.00,VWS V14.01,2013-02-11 15:20:00,
2013-02-11 08:30:00,30.0,26.3,30.15,ENE,67,0.0,0.0,86,0.00,,---,0.00,VWS V14.01,2013-02-11 15:30:00,
2013-02-11 08:40:00,31.0,25.6,30.15,NE,45,0.0,0.0,80,0.00,,---,0.00,VWS V14.01,2013-02-11 15:40:00,
2013-02-11 08:50:00,32.0,24.3,30.14,NE,45,0.0,0.0,73,0.00,,---,0.00,VWS V14.01,2013-02-11 15:50:00,
2013-02-11 09:00:00,33.0,23.6,30.14,ENE,67,0.0,0.0,68,0.00,,---,0.00,VWS V14.01,2013-02-11 16:00:00,
2013-02-11 09:10:00,36.0,25.0,30.13,ESE,112,0.0,0.0,64,0.00,,---,0.00,VWS V14.01,2013-02-11 16:10:00,
2013-02-11 09:20:00,36.0,23.5,30.12,East,90,0.0,4.0,60,0.00,,---,0.00,VWS V14.01,2013-02-11 16:20:00,
2013-02-11 09:30:00,37.0,22.8,30.12,East,90,0.0,3.0,56,0.00,,---,0.00,VWS V14.01,2013-02-11 16:30:00,
2013-02-11 09:40:00,38.0,21.5,30.11,East,90,0.0,4.0,51,0.00,,---,0.00,VWS V14.01,2013-02-11 16:40:00,
2013-02-11 09:50:00,38.0,21.5,30.11,ESE,112,0.0,0.0,51,0.00,,---,0.00,VWS V14.01,2013-02-11 16:50:00,
2013-02-11 10:00:00,38.0,19.6,30.11,ESE,112,0.0,0.0,47,0.00,,---,0.00,VWS V14.01,2013-02-11 17:00:00,
2013-02-11 10:10:00,38.0,19.1,30.12,SE,135,0.0,4.0,46,0.00,,---,0.00,VWS V14.01,2013-02-11 17:10:00,
2013-02-11 10:20:00,37.0,17.1,30.12,ESE,112,0.0,0.0,44,0.00,,---,0.00,VWS V14.01,2013-02-11 17:20:00,
2013-02-11 10:30:00,38.0,18.0,30.12,SE,135,0.0,0.0,44,0.00,,---,0.00,VWS V14.01,2013-02-11 17:30:00,
2013-02-11 10:40:00,38.0,17.0,30.12,SSE,157,0.0,0.0,42,0.00,,---,0.00,VWS V14.01,2013-02-11 17:40:00,
2013-02-11 10:50:00,39.0,17.3,30.12,SW,225,0.0,0.0,41,0.00,,---,0.00,VWS V14.01,2013-02-11 17:50:00,
2013-02-11 11:00:00,37.0,16.1,30.11,WSW,247,0.0,0.0,42,0.00,,---,0.00,VWS V14.01,2013-02-11 18:00:00,
2013-02-11 11:10:00,37.0,16.1,30.11,West,270,0.0,0.0,42,0.00,,---,0.00,VWS V14.01,2013-02-11 18:10:00,
2013-02-11 11:20:00,39.0,16.2,30.11,SE,135,0.0,0.0,39,0.00,,---,0.00,VWS V14.01,2013-02-11 18:20:00,
2013-02-11 11:30:00,40.0,17.1,30.10,SSE,157,0.0,0.0,39,0.00,,---,0.00,VWS V14.01,2013-02-11 18:30:00,
2013-02-11 11:40:00,40.0,14.6,30.09,SSE,157,0.0,0.0,35,0.00,,---,0.00,VWS V14.01,2013-02-11 18:40:00,
2013-02-11 11:50:00,40.0,13.2,30.09,ESE,112,7.0,7.0,33,0.00,,---,0.00,VWS V14.01,2013-02-11 18:50:00,
2013-02-11 12:00:00,41.0,11.2,30.08,South,180,10.0,10.0,29,0.00,,---,0.00,VWS V14.01,2013-02-11 19:00:00,
2013-02-11 12:10:00,42.0,11.3,30.07,ESE,112,0.0,10.0,28,0.00,,---,0.00,VWS V14.01,2013-02-11 19:10:00,
2013-02-11 12:20:00,42.0,10.5,30.07,SE,135,0.0,12.0,27,0.00,,---,0.00,VWS V14.01,2013-02-11 19:20:00,
2013-02-11 12:30:00,42.0,9.6,30.06,SE,135,1.0,13.0,26,0.00,,---,0.00,VWS V14.01,2013-02-11 19:30:00,
2013-02-11 12:40:00,42.0,9.6,30.06,North,360,0.0,12.0,26,0.00,,---,0.00,VWS V14.01,2013-02-11 19:40:00,
2013-02-11 12:50:00,43.0,8.7,30.06,SSE,157,13.0,14.0,24,0.00,,---,0.00,VWS V14.01,2013-02-11 19:50:00,
2013-02-11 13:10:00,42.0,7.8,30.06,South,180,6.0,11.0,24,0.00,,---,0.00,VWS V14.01,2013-02-11 20:10:00,
2013-02-11 13:20:00,43.0,6.8,30.05,ESE,112,0.0,13.0,22,0.00,,---,0.00,VWS V14.01,2013-02-11 20:20:00,
2013-02-11 13:30:00,44.0,7.6,30.04,South,180,0.0,11.0,22,0.00,,---,0.00,VWS V14.01,2013-02-11 20:30:00,
2013-02-11 13:40:00,44.0,5.5,30.04,SW,225,0.0,10.0,20,0.00,,---,0.00,VWS V14.01,2013-02-11 20:40:00,
2013-02-11 13:50:00,44.0,4.4,30.03,South,180,0.0,5.0,19,0.00,,---,0.00,VWS V14.01,2013-02-11 20:50:00,
2013-02-11 14:00:00,45.0,5.2,30.02,East,90,8.0,10.0,19,0.00,,---,0.00,VWS V14.01,2013-02-11 21:00:00,
2013-02-11 14:10:00,43.0,2.4,30.01,SW,225,8.0,17.0,18,0.00,,---,0.00,VWS V14.01,2013-02-11 21:10:00,
2013-02-11 14:20:00,43.0,3.6,30.02,SW,225,6.0,19.0,19,0.00,,---,0.00,VWS V14.01,2013-02-11 21:20:00,
2013-02-11 14:30:00,42.0,2.7,30.02,SW,225,8.0,12.0,19,0.00,,---,0.00,VWS V14.01,2013-02-11 21:30:00,
2013-02-11 14:40:00,43.0,3.6,30.02,South,180,7.0,12.0,19,0.00,,---,0.00,VWS V14.01,2013-02-11 21:40:00,
2013-02-11 14:50:00,43.0,4.7,30.02,SSW,202,4.0,11.0,20,0.00,,---,0.00,VWS V14.01,2013-02-11 21:50:00,
2013-02-11 15:00:00,42.0,5.9,30.02,North,360,14.0,15.0,22,0.00,,---,0.00,VWS V14.01,2013-02-11 22:00:00,
2013-02-11 15:10:00,41.0,7.0,30.02,West,270,14.0,18.0,24,0.00,,---,0.00,VWS V14.01,2013-02-11 22:10:00,
2013-02-11 15:20:00,41.0,7.0,30.03,WSW,247,5.0,14.0,24,0.00,,---,0.00,VWS V14.01,2013-02-11 22:20:00,
2013-02-11 15:30:00,40.0,7.9,30.03,West,270,11.0,16.0,26,0.00,,---,0.00,VWS V14.01,2013-02-11 22:30:00,
2013-02-11 15:40:00,41.0,7.9,30.04,WSW,247,8.0,15.0,25,0.00,,---,0.00,VWS V14.01,2013-02-11 22:40:00,
2013-02-11 15:50:00,40.0,7.9,30.04,WSW,247,10.0,15.0,26,0.00,,---,0.00,VWS V14.01,2013-02-11 22:50:00,
2013-02-11 16:00:00,40.0,8.7,30.04,SW,225,9.0,15.0,27,0.00,,---,0.00,VWS V14.01,2013-02-11 23:00:00,
2013-02-11 16:10:00,39.0,9.4,30.04,WSW,247,9.0,16.0,29,0.00,,---,0.00,VWS V14.01,2013-02-11 23:10:00,
2013-02-11 16:20:00,39.0,9.4,30.05,WSW,247,8.0,17.0,29,0.00,,---,0.00,VWS V14.01,2013-02-11 23:20:00,
2013-02-11 16:30:00,39.0,9.4,30.05,North,360,10.0,13.0,29,0.00,,---,0.00,VWS V14.01,2013-02-11 23:30:00,
2013-02-11 16:40:00,39.0,9.4,30.06,West,270,8.0,11.0,29,0.00,,---,0.00,VWS V14.01,2013-02-11 23:40:00,
2013-02-11 16:50:00,38.0,10.1,30.06,West,270,10.0,15.0,31,0.00,,---,0.00,VWS V14.01,2013-02-11 23:50:00,
2013-02-11 17:00:00,38.0,14.7,30.07,West,270,1.0,12.0,38,0.00,,---,0.00,VWS V14.01,2013-02-12 00:00:00,
2013-02-11 17:10:00,34.0,18.7,30.06,West,270,5.0,16.0,53,0.00,,---,0.00,VWS V14.01,2013-02-12 00:10:00,
2013-02-11 17:20:00,34.0,20.4,30.08,North,360,17.0,18.0,57,0.00,,---,0.00,VWS V14.01,2013-02-12 00:20:00,
2013-02-11 17:30:00,33.0,21.0,30.08,SW,225,4.0,17.0,61,0.00,,---,0.00,VWS V14.01,2013-02-12 00:30:00,
2013-02-11 17:40:00,32.0,20.9,30.08,West,270,12.0,17.0,63,0.00,,---,0.00,VWS V14.01,2013-02-12 00:40:00,
2013-02-11 17:50:00,32.0,21.6,30.09,West,270,12.0,12.0,65,0.00,,---,0.00,VWS V14.01,2013-02-12 00:50:00,
2013-02-11 18:00:00,32.0,22.3,30.10,West,270,13.0,19.0,67,0.00,,---,0.00,VWS V14.01,2013-02-12 01:00:00,
2013-02-11 18:10:00,31.0,22.0,30.11,West,270,9.0,14.0,69,0.00,,---,0.00,VWS V14.01,2013-02-12 01:10:00,
2013-02-11 18:20:00,31.0,22.7,30.11,West,270,6.0,14.0,71,0.00,,---,0.00,VWS V14.01,2013-02-12 01:20:00,
2013-02-11 18:30:00,31.0,23.0,30.12,WNW,292,12.0,13.0,72,0.00,,---,0.00,VWS V14.01,2013-02-12 01:30:00,
2013-02-11 18:40:00,30.0,21.8,30.12,West,270,6.0,15.0,71,0.00,,---,0.00,VWS V14.01,2013-02-12 01:40:00,
2013-02-11 18:50:00,30.0,22.4,30.12,West,270,11.0,16.0,73,0.00,,---,0.00,VWS V14.01,2013-02-12 01:50:00,
2013-02-11 19:00:00,30.0,22.1,30.12,West,270,9.0,19.0,72,0.00,,---,0.00,VWS V14.01,2013-02-12 02:00:00,
2013-02-11 19:10:00,30.0,21.4,30.12,WSW,247,8.0,14.0,70,0.00,,---,0.00,VWS V14.01,2013-02-12 02:10:00,
2013-02-11 19:20:00,30.0,21.4,30.12,West,270,13.0,17.0,70,0.00,,---,0.00,VWS V14.01,2013-02-12 02:20:00,
2013-02-11 19:30:00,30.0,22.1,30.12,West,270,14.0,24.0,72,0.00,,---,0.00,VWS V14.01,2013-02-12 02:30:00,
2013-02-11 19:40:00,29.0,21.1,30.12,West,270,13.0,21.0,72,0.00,,---,0.00,VWS V14.01,2013-02-12 02:40:00,
2013-02-11 19:50:00,29.0,21.4,30.14,WNW,292,11.0,20.0,73,0.00,,---,0.00,VWS V14.01,2013-02-12 02:50:00,
2013-02-11 20:00:00,29.0,21.4,30.14,West,270,6.0,17.0,73,0.00,,---,0.00,VWS V14.01,2013-02-12 03:00:00,
2013-02-11 20:10:00,29.0,21.4,30.14,West,270,10.0,14.0,73,0.00,,---,0.00,VWS V14.01,2013-02-12 03:10:00,
2013-02-11 20:20:00,29.0,21.1,30.14,WNW,292,11.0,16.0,72,0.00,,---,0.00,VWS V14.01,2013-02-12 03:20:00,
2013-02-11 20:30:00,29.0,21.1,30.14,West,270,6.0,11.0,72,0.00,,---,0.00,VWS V14.01,2013-02-12 03:30:00,
2013-02-11 20:40:00,29.0,20.5,30.14,WNW,292,0.0,10.0,70,0.00,,---,0.00,VWS V14.01,2013-02-12 03:40:00,
2013-02-11 20:50:00,29.0,20.1,30.15,WNW,292,0.0,7.0,69,0.00,,---,0.00,VWS V14.01,2013-02-12 03:50:00,
2013-02-11 21:00:00,29.0,19.8,30.15,West,270,0.0,8.0,68,0.00,,---,0.00,VWS V14.01,2013-02-12 04:00:00,
2013-02-11 21:10:00,29.0,19.8,30.15,WNW,292,0.0,0.0,68,0.00,,---,0.00,VWS V14.01,2013-02-12 04:10:00,
2013-02-11 21:20:00,29.0,19.8,30.15,NNW,337,0.0,0.0,68,0.00,,---,0.00,VWS V14.01,2013-02-12 04:20:00,
2013-02-11 21:30:00,28.0,19.5,30.14,NW,315,0.0,0.0,70,0.00,,---,0.00,VWS V14.01,2013-02-12 04:30:00,
2013-02-11 21:40:00,28.0,19.8,30.15,WNW,292,0.0,0.0,71,0.00,,---,0.00,VWS V14.01,2013-02-12 04:40:00,
2013-02-11 21:50:00,27.0,18.9,30.15,NNE,22,0.0,0.0,71,0.00,,---,0.00,VWS V14.01,2013-02-12 04:50:00,
2013-02-11 22:00:00,27.0,19.5,30.15,North,360,0.0,0.0,73,0.00,,---,0.00,VWS V14.01,2013-02-12 05:00:00,
2013-02-11 22:10:00,27.0,19.5,30.15,NNE,22,0.0,8.0,73,0.00,,---,0.00,VWS V14.01,2013-02-12 05:10:00,
2013-02-11 22:20:00,27.0,20.1,30.15,NW,315,0.0,3.0,75,0.00,,---,0.00,VWS V14.01,2013-02-12 05:20:00,
2013-02-11 22:30:00,27.0,20.5,30.15,West,270,0.0,10.0,76,0.00,,---,0.00,VWS V14.01,2013-02-12 05:30:00,
2013-02-11 22:40:00,27.0,20.8,30.14,NNW,337,0.0,10.0,77,0.00,,---,0.00,VWS V14.01,2013-02-12 05:40:00,
2013-02-11 22:50:00,27.0,20.8,30.14,WNW,292,0.0,9.0,77,0.00,,---,0.00,VWS V14.01,2013-02-12 05:50:00,
2013-02-11 23:00:00,26.0,20.4,30.15,NNW,337,7.0,9.0,79,0.00,,---,0.00,VWS V14.01,2013-02-12 06:00:00,
2013-02-11 23:10:00,26.0,21.0,30.14,WNW,292,0.0,9.0,81,0.00,,---,0.00,VWS V14.01,2013-02-12 06:10:00,
2013-02-11 23:20:00,26.0,21.3,30.14,NNW,337,7.0,13.0,82,0.00,,---,0.00,VWS V14.01,2013-02-12 06:20:00,
2013-02-11 23:30:00,25.0,20.3,30.15,NW,315,0.0,8.0,82,0.00,,---,0.00,VWS V14.01,2013-02-12 06:30:00,
2013-02-11 23:40:00,25.0,20.6,30.15,WNW,292,0.0,7.0,83,0.00,,---,0.00,VWS V14.01,2013-02-12 06:40:00,
2013-02-11 23:50:00,25.0,20.6,30.15,WNW,292,0.0,8.0,83,0.00,,---,0.00,VWS V14.01,2013-02-12 06:50:00,